»·PEaware :: N732SG KSBD-KSEE

N732SG :: KSBD-KSEE

FLIGHT INFORMATION

Flight Status: Arrived
Operator: Privately registered:
United States
More flights under this callsign
Pilot: Scott G. (88)
Aircraft: CESSNA 172 SKYHAWK
(C172)
More flights by this aircraft type
Origin: KSBD San Bernardino Intl
United States
Destination: KSEE Gillespie
United States
More flights between these airports :: More routes between these airports
Route: +PDZ V186 HAILE V66 MZB
File this flight plan on PilotEdge
Remarks:
Altitude:
(Current/Filed)
9,000ft
Speed:
(Current/Filed)
120kts
Departed: 12-Jan-17 11:50 AM
Arrived: 12-Jan-17 12:45 PM
Distance/Time
Traveled:
77nm/0:55
Distance/Time
To Go:
Arrived

Flight Plot

Page will automatically refresh every two minutes.


Map Options




Map Legend


Flown Route
Filed Route
Departure Airport
Arrival Airport
Navaid (VOR, NDB)
Fix

Horizontal Profiles

Position Reports

Time Latitude Longitude Heading Altitude Ground
Speed
12-Jan-17 11:12 34.105388 -117.246073 153 1098ft 0kts
12-Jan-17 11:13 34.105388 -117.246073 153 1098ft 0kts
12-Jan-17 11:14 34.105388 -117.246073 153 1098ft 0kts
12-Jan-17 11:23 34.105388 -117.246074 156 1098ft 0kts
12-Jan-17 11:24 34.105388 -117.246074 155 1098ft 0kts
12-Jan-17 11:25 34.105388 -117.246074 155 1098ft 0kts
12-Jan-17 11:26 34.105388 -117.246074 155 1098ft 0kts
12-Jan-17 11:27 34.105388 -117.246074 155 1098ft 0kts
12-Jan-17 11:28 34.105388 -117.246074 155 1098ft 0kts
12-Jan-17 11:29 34.105388 -117.246074 155 1098ft 0kts
12-Jan-17 11:30 34.104657 -117.245558 124 1098ft 11kts
12-Jan-17 11:31 34.103179 -117.242014 114 1105ft 0kts
12-Jan-17 11:32 34.103179 -117.242014 114 1105ft 0kts
12-Jan-17 11:33 34.103179 -117.242014 114 1105ft 0kts
12-Jan-17 11:34 34.103179 -117.242014 114 1105ft 0kts
12-Jan-17 11:35 34.103179 -117.242014 114 1105ft 0kts
12-Jan-17 11:36 34.103179 -117.242014 114 1105ft 0kts
12-Jan-17 11:37 34.102814 -117.241214 120 1107ft 12kts
12-Jan-17 11:38 34.098514 -117.237955 147 1110ft 19kts
12-Jan-17 11:39 34.095254 -117.241590 250 1100ft 28kts
12-Jan-17 11:40 34.092944 -117.249432 249 1084ft 21kts
12-Jan-17 11:41 34.092217 -117.251569 92 1080ft 0kts
12-Jan-17 11:42 34.092217 -117.251570 92 1080ft 0kts
12-Jan-17 11:43 34.092217 -117.251570 92 1080ft 0kts
12-Jan-17 11:45 34.092217 -117.251570 92 1080ft 0kts
12-Jan-17 11:46 34.092217 -117.251570 92 1080ft 0kts
12-Jan-17 11:47 34.092217 -117.251570 92 1080ft 0kts
12-Jan-17 11:48 34.091826 -117.250779 157 1082ft 7kts
12-Jan-17 11:49 34.091622 -117.250691 154 1082ft 0kts
12-Jan-17 11:50 34.092343 -117.244899 73 1184ft 67kts
12-Jan-17 11:51 34.088564 -117.229855 209 2247ft 77kts
12-Jan-17 11:52 34.076591 -117.250474 231 3203ft 83kts
12-Jan-17 11:53 34.061437 -117.278169 230 3895ft 103kts
12-Jan-17 11:54 34.045555 -117.306619 228 4688ft 101kts
12-Jan-17 11:55 34.030170 -117.333949 227 5472ft 97kts
12-Jan-17 11:56 34.015329 -117.360218 225 6260ft 92kts
12-Jan-17 11:57 34.003650 -117.380868 224 6908ft 88kts
12-Jan-17 11:58 33.989594 -117.405622 224 7562ft 94kts
12-Jan-17 11:59 33.977374 -117.427196 224 8050ft 95kts
12-Jan-17 12:00 33.962106 -117.452719 220 8636ft 92kts
12-Jan-17 12:01 33.947135 -117.476135 220 8959ft 105kts
12-Jan-17 12:02 33.924104 -117.498175 227 8953ft 102kts
12-Jan-17 12:03 33.899611 -117.508809 166 8958ft 122kts
12-Jan-17 12:04 33.870051 -117.488504 158 8942ft 125kts
12-Jan-17 12:05 33.841875 -117.466096 156 8933ft 124kts
12-Jan-17 12:06 33.815187 -117.444038 154 8930ft 101kts
12-Jan-17 12:07 33.792223 -117.424937 154 8935ft 102kts
12-Jan-17 12:08 33.768854 -117.405417 154 8933ft 102kts
12-Jan-17 12:09 33.745597 -117.385945 154 8931ft 102kts
12-Jan-17 12:10 33.722315 -117.366494 154 8929ft 103kts
12-Jan-17 12:11 33.698786 -117.346847 155 8929ft 103kts
12-Jan-17 12:12 33.675364 -117.327323 155 8929ft 102kts
12-Jan-17 12:13 33.652190 -117.308014 155 8929ft 102kts
12-Jan-17 12:14 33.628995 -117.288687 155 8929ft 102kts
12-Jan-17 12:15 33.605698 -117.269299 155 8928ft 102kts
12-Jan-17 12:16 33.582499 -117.250018 153 8932ft 101kts
12-Jan-17 12:17 33.559710 -117.231087 153 8937ft 99kts
12-Jan-17 12:18 33.537035 -117.212233 152 8943ft 98kts
12-Jan-17 12:19 33.517569 -117.196062 150 8947ft 98kts
12-Jan-17 12:20 33.500562 -117.181946 149 8951ft 97kts
12-Jan-17 12:21 33.478212 -117.163536 155 8954ft 97kts
12-Jan-17 12:22 33.447819 -117.156180 179 8964ft 121kts
12-Jan-17 12:23 33.414550 -117.148903 179 8964ft 122kts
12-Jan-17 12:24 33.382625 -117.142295 170 9080ft 106kts
12-Jan-17 12:25 33.354563 -117.136149 170 9079ft 101kts
12-Jan-17 12:26 33.327007 -117.130231 171 9077ft 100kts
12-Jan-17 12:27 33.299470 -117.124337 173 9075ft 101kts
12-Jan-17 12:28 33.272130 -117.118361 174 9074ft 99kts
12-Jan-17 12:29 33.244790 -117.112540 174 9074ft 99kts
12-Jan-17 12:30 33.217712 -117.106808 174 9074ft 98kts
12-Jan-17 12:31 33.192066 -117.090316 153 8525ft 112kts
12-Jan-17 12:32 33.164798 -117.069214 153 7534ft 121kts
12-Jan-17 12:33 33.135820 -117.047916 153 6524ft 123kts
12-Jan-17 12:34 33.113939 -117.030438 153 7036ft 102kts
12-Jan-17 12:35 33.088912 -117.010923 153 7034ft 110kts
12-Jan-17 12:36 33.063305 -116.990626 153 7036ft 111kts
12-Jan-17 12:37 33.037318 -116.969665 153 6916ft 121kts
12-Jan-17 12:38 33.006893 -116.946256 153 5915ft 130kts
12-Jan-17 12:39 32.977781 -116.948109 217 4335ft 127kts
12-Jan-17 12:40 32.948508 -116.967212 190 2629ft 122kts
12-Jan-17 12:41 32.917243 -116.972819 184 1935ft 114kts
12-Jan-17 12:42 32.886718 -116.972638 180 1651ft 109kts
12-Jan-17 12:43 32.863393 -116.972576 180 1248ft 112kts
12-Jan-17 12:44 32.835261 -116.972542 182 569ft 67kts
12-Jan-17 12:45 32.822761 -116.972000 125 375ft 6kts
12-Jan-17 12:46 32.822730 -116.971946 121 375ft 0kts
12-Jan-17 12:47 32.822730 -116.971946 121 375ft 0kts
12-Jan-17 12:48 32.822730 -116.971946 121 375ft 0kts
12-Jan-17 12:49 32.824555 -116.971146 98 375ft 13kts
12-Jan-17 12:50 32.824651 -116.970481 178 377ft 0kts
12-Jan-17 12:51 32.824651 -116.970481 178 377ft 0kts

Navigation Log

Ident Type
Flight plan parsing failed, navigation log unavailable